x

South Santa Rosa Is. Ca (46069) Wave Buoy

4:50pm - Thu 28th May 2015 All times are PDT. -7 hours from GMT.

  • Sig Wave height 6.2ft
  • Peak Period 15s
  • Average Period 6s
  • Wind
    20mph, 25mph gusts
  • Sea Temp 60°f
  • 空気 Temp 57°f
  • Sea Pressure 1014.2mb
  • South Santa Rosa Is. Ca
  • South Santa Rosa Is. Ca

More Historic Weather Station data

Upgrade to MSW Pro to gain access to the past 30 days of data for over 8000 Wavebouys and Weather Stations around the globe.

Join Pro

Comparision Forecast

View Surf forecast
   
Thu 05/28 4:50pm 6ft 15s 6s 20 25 mph 1014.2mb 60f 57f
3:50pm 6ft 14s 6s 20 25 mph 1014.6mb 60f 57f
2:50pm 6.5ft 15s 6s 20 25 mph 1014.8mb 60f 57f
1:50pm 6ft 16s 6s 18 20 mph 1015.1mb 60f 57f
12:50pm 6ft 16s 6s 18 22 mph 1015.7mb 60f 57f
11:50am 6.5ft 16s 6s 18 22 mph 1016.1mb 59f 56f
10:50am 6ft 7s 5s 20 25 mph 1016mb 59f 56f
9:50am 7ft 16s 6s 20 25 mph 1015.7mb 59f 55f
8:50am 6.5ft 14s 6s 22 25 mph 1015.8mb 59f 55f
7:50am 6.5ft 17s 6s 22 25 mph 1015.4mb 59f 55f
6:50am 6ft 13s 5s 25 29 mph 1014.8mb 59f 55f
5:50am 6ft 16s 5s 22 29 mph 1014.1mb 59f 56f
4:50am 6ft 15s 6s 22 27 mph 1013.8mb 59f 55f
3:50am 6ft 14s 6s 22 25 mph 1014.1mb 59f 56f
2:50am 6ft 15s 6s 20 25 mph 1014.4mb 59f 56f
1:50am 6ft 15s 6s 20 25 mph 1014.8mb 60f 56f
12:50am 5.5ft 15s 6s 20 25 mph 1014.9mb 60f 56f
Wed 05/27 11:50pm 5ft 15s 6s 20 22 mph 1015.2mb 59f 56f
10:50pm 6ft 15s 6s 20 22 mph 1015.4mb 59f 57f
9:50pm 6ft 16s 6s 18 22 mph 1015mb 60f 57f
8:50pm 6ft 17s 6s 18 22 mph 1014.8mb 60f 57f
7:50pm 5.5ft 15s 6s 20 25 mph 1014.5mb 60f 57f
6:50pm 4.5ft 5s 5s 20 25 mph 1014.6mb 60f 58f
5:50pm 5ft 17s 6s 20 25 mph 1014.8mb 60f 58f
4:50pm 5ft 17s 6s 20 22 mph 1015mb 60f 58f
3:50pm 5ft 17s 6s 16 18 mph 1015.3mb 60f 58f
2:50pm 5ft 17s 7s 16 18 mph 1015.9mb 60f 58f
1:50pm 5ft 15s 6s 16 20 mph 1016.2mb 60f 58f
12:50pm 5ft 17s 6s 18 20 mph 1016.3mb 60f 57f
11:50am 5ft 14s 6s 18 22 mph 1016.5mb 59f 57f
10:50am 5ft 17s 7s 16 20 mph 1016.5mb 59f 57f
9:50am 5.5ft 17s 6s 18 20 mph 1016.2mb 59f 57f
8:50am 5ft 16s 6s 18 20 mph 1016.1mb 59f 58f
7:50am 5.5ft 17s 6s 20 22 mph 1016mb 59f 57f
6:50am 5ft 17s 6s 18 22 mph 1015.4mb 59f 57f
5:50am 5.5ft 15s 6s 18 22 mph 1015.1mb 59f 57f
4:50am 5.5ft 14s 6s 18 22 mph 1014.8mb 59f 57f
3:50am 5.5ft 15s 6s 18 22 mph 1014.9mb 60f 57f
2:50am 5ft 16s 6s 18 22 mph 1015.1mb 60f 57f
1:50am 4.5ft 14s 5s 20 22 mph 1015.2mb 60f 58f
12:50am 5ft 16s 6s 20 25 mph 1015.8mb 60f 58f
Tue 05/26 11:50pm 5ft 11s 6s 20 25 mph 1015.3mb 60f 58f
10:50pm 5ft 14s 6s 20 22 mph 1015.3mb 60f 57f
9:50pm 5ft 14s 6s 18 22 mph 1015.1mb 60f 58f
8:50pm 4.5ft 11s 5s 20 25 mph 1014.9mb 60f 58f
7:50pm 5ft 14s 6s 18 20 mph 1014.9mb 60f 57f
6:50pm 4.5ft 14s 6s 18 20 mph 1015mb 60f 58f
5:50pm 4.5ft 11s 6s 16 20 mph 1015.3mb 60f 58f
4:50pm 4.5ft 17s 6s 16 20 mph 1015.6mb 60f 58f
3:50pm 4.5ft 15s 7s 16 18 mph 1015.8mb 60f 58f
2:50pm 5ft 15s 7s 13 18 mph 1016.1mb 60f 57f
1:50pm 5ft 14s 7s 13 16 mph 1016.5mb 60f 57f
12:50pm 4.5ft 14s 7s 13 16 mph 1016.5mb 60f 57f
11:50am 5ft 11s 7s 16 18 mph 1016.7mb 60f 56f
10:50am 5ft 14s 7s 16 18 mph 1016.6mb 59f 56f
9:50am 4.5ft 14s 6s 13 18 mph 1016.2mb 59f 56f
8:50am 4.5ft 14s 7s 16 22 mph 1016mb 59f 56f
7:50am 5ft 15s 7s 13 16 mph 1015.8mb 59f 55f
6:50am 5ft 15s 7s 13 18 mph 1015.5mb 59f 55f
5:50am 5ft 15s 7s 13 16 mph 1015.2mb 59f 56f
4:50am 5ft 15s 7s 16 20 mph 1015.1mb 59f 56f
3:50am 5ft 15s 7s 16 20 mph 1015.1mb 59f 56f
2:50am 5ft 15s 6s 16 20 mph 1014.9mb 59f 56f
1:50am 5ft 15s 6s 13 18 mph 1015.2mb 59f 57f
12:50am 5ft 15s 6s 18 20 mph 1015.3mb 60f 57f
Mon 05/25 11:50pm 5ft 15s 6s 18 22 mph 1015.5mb 60f 58f
10:50pm 5ft 15s 7s 18 20 mph 1015.5mb 60f 58f
9:50pm 4.5ft 15s 6s 16 20 mph 1015.5mb 60f 58f
8:50pm 4.5ft 15s 6s 16 18 mph 1015.1mb 60f 58f
7:50pm 5ft 15s 7s 16 18 mph 1014.6mb 60f 58f
6:50pm 5ft 15s 7s 16 18 mph 1014.5mb 60f 58f
5:50pm 5ft 16s 7s 13 16 mph 1014.6mb 60f 58f
4:50pm 5.5ft 15s 7s 13 16 mph 1014.9mb 60f 57f
3:50pm 5.5ft 15s 7s 13 18 mph 1015.2mb 60f 57f
2:50pm 5ft 15s 7s 11 13 mph 1015.8mb 60f 57f
1:50pm 5ft 8s 6s 11 13 mph 1015.9mb 60f 57f
12:50pm 6ft 16s 7s 11 13 mph 1016mb 59f 56f
11:50am 5ft 15s 6s 13 18 mph 1016.3mb 59f 56f
10:50am 5ft 9s 6s 16
mph
1015.9mb 59f 56f
9:50am 5ft 15s 6s 16 18 mph 1016mb 59f 56f
8:50am 5.5ft 16s 6s 16 18 mph 1015.4mb 59f 56f
7:50am 5ft 16s 6s 16 20 mph 1014.8mb 59f 56f
6:50am 5.5ft 8s 6s 18 22 mph 1014.2mb 59f 56f
5:50am 6ft 16s 6s 18 20 mph 1014mb 59f 56f
4:50am 6ft 9s 6s 18 22 mph 1013.5mb 59f 56f
3:50am 6ft 8s 6s 20 25 mph 1013.8mb 59f 56f
2:50am 6.5ft 8s 6s 20 25 mph 1013.8mb 59f 56f
1:50am 6ft 9s 6s 18 22 mph 1014.2mb 59f 57f